Time;durP1;ratioP1;P1;durP2;ratioP2;P2;SDS_P1;SDS_P2;PMS_P1;PMS_P2;Temp;Humidity;BMP_temperature;BMP_pressure;BME280_temperature;BME280_humidity;BME280_pressure;Samples;Min_cycle;Max_cycle;Signal;HPM_P1;HPM_P2
2022/08/28 00:01:00;;;;;;;9.83;7.00;;;;;;;;;;4965525;28;20192;-81
2022/08/28 00:04:04;;;;;;;6.60;5.90;;;;;;;;;;4960491;29;20184;-82
2022/08/28 00:07:09;;;;;;;7.57;6.70;;;;;;;;;;4959870;28;20211;-82
2022/08/28 00:10:15;;;;;;;7.40;6.60;;;;;;;;;;4987411;28;20669;-81
2022/08/28 00:13:22;;;;;;;8.50;6.63;;;;;;;;;;4966526;29;20175;-82
2022/08/28 00:16:26;;;;;;;7.60;6.77;;;;;;;;;;4964211;29;20179;-81
2022/08/28 00:19:30;;;;;;;9.40;6.20;;;;;;;;;;4983293;28;20179;-82
2022/08/28 00:22:37;;;;;;;11.03;7.07;;;;;;;;;;4970905;28;20220;-81
2022/08/28 00:25:41;;;;;;;7.77;7.00;;;;;;;;;;4970935;28;20195;-81
2022/08/28 00:28:45;;;;;;;7.73;6.50;;;;;;;;;;4982706;28;20214;-81
2022/08/28 00:31:50;;;;;;;9.00;7.07;;;;;;;;;;4970743;28;20175;-82
2022/08/28 00:34:54;;;;;;;11.03;6.77;;;;;;;;;;4962010;29;20183;-81
2022/08/28 00:37:59;;;;;;;7.50;6.43;;;;;;;;;;4977316;28;20231;-81
2022/08/28 00:41:03;;;;;;;7.57;6.60;;;;;;;;;;4980413;28;20183;-81
2022/08/28 00:44:23;;;;;;;7.00;6.40;;;;;;;;;;4977297;28;20191;-81
2022/08/28 00:47:27;;;;;;;8.63;6.80;;;;;;;;;;4967268;28;20227;-81
2022/08/28 00:52:04;;;;;;;7.30;6.60;;;;;;;;;;4978047;28;20195;-82
2022/08/28 00:53:58;;;;;;;8.17;7.03;;;;;;;;;;4965951;28;20665;-81
2022/08/28 00:57:07;;;;;;;8.10;7.00;;;;;;;;;;4966467;28;20218;-82
2022/08/28 01:00:18;;;;;;;10.90;6.50;;;;;;;;;;4965443;28;20195;-81
2022/08/28 01:03:22;;;;;;;7.37;6.67;;;;;;;;;;4976434;28;20218;-82
2022/08/28 01:06:27;;;;;;;8.60;7.80;;;;;;;;;;4954988;28;20186;-81
2022/08/28 01:09:32;;;;;;;8.37;7.57;;;;;;;;;;4954387;28;20183;-82
2022/08/28 01:12:36;;;;;;;8.53;7.27;;;;;;;;;;4976177;28;20199;-82
2022/08/28 01:15:41;;;;;;;7.30;6.60;;;;;;;;;;4977316;28;20191;-82
2022/08/28 01:18:47;;;;;;;10.67;7.53;;;;;;;;;;4976345;28;20234;-81
2022/08/28 01:22:01;;;;;;;8.37;6.37;;;;;;;;;;4965071;28;20538;-82
2022/08/28 01:25:11;;;;;;;8.23;7.43;;;;;;;;;;4956460;29;20674;-81
2022/08/28 01:28:15;;;;;;;9.23;7.47;;;;;;;;;;4976838;28;20218;-81
2022/08/28 01:31:20;;;;;;;8.73;7.83;;;;;;;;;;4976036;28;20217;-82
2022/08/28 01:34:24;;;;;;;8.67;7.77;;;;;;;;;;4967605;28;20180;-81
2022/08/28 01:37:28;;;;;;;8.60;7.60;;;;;;;;;;4956276;28;20222;-82
2022/08/28 01:40:36;;;;;;;8.73;7.90;;;;;;;;;;4958971;28;20206;-82
2022/08/28 01:43:41;;;;;;;8.20;7.30;;;;;;;;;;4962950;28;20191;-81
2022/08/28 01:46:45;;;;;;;8.83;8.00;;;;;;;;;;4964131;28;20199;-82
2022/08/28 01:49:50;;;;;;;10.83;8.03;;;;;;;;;;4952739;28;20198;-82
2022/08/28 01:52:54;;;;;;;9.17;8.27;;;;;;;;;;4963600;28;20195;-82
2022/08/28 01:56:01;;;;;;;9.50;8.47;;;;;;;;;;4955339;28;20567;-81
2022/08/28 01:59:08;;;;;;;10.90;8.70;;;;;;;;;;4933576;29;20211;-82
2022/08/28 02:02:12;;;;;;;9.17;8.13;;;;;;;;;;4964423;28;20214;-81
2022/08/28 02:05:18;;;;;;;9.50;8.50;;;;;;;;;;4974405;28;20194;-82
2022/08/28 02:08:22;;;;;;;10.47;8.27;;;;;;;;;;4964405;28;20574;-82
2022/08/28 02:11:28;;;;;;;10.83;9.50;;;;;;;;;;4963866;28;20215;-81
2022/08/28 02:14:32;;;;;;;11.03;8.67;;;;;;;;;;4975472;28;20185;-81
2022/08/28 02:17:37;;;;;;;11.23;8.33;;;;;;;;;;4952550;28;20225;-82
2022/08/28 02:20:43;;;;;;;11.57;8.70;;;;;;;;;;4963808;28;22092;-82
2022/08/28 02:23:47;;;;;;;13.20;9.37;;;;;;;;;;4963233;28;20213;-81
2022/08/28 02:26:51;;;;;;;9.97;8.73;;;;;;;;;;4974972;28;20195;-82
2022/08/28 02:29:57;;;;;;;11.87;9.33;;;;;;;;;;4966673;28;20187;-81
2022/08/28 02:33:01;;;;;;;12.10;9.03;;;;;;;;;;4967064;28;20211;-82
2022/08/28 02:36:07;;;;;;;9.77;7.97;;;;;;;;;;4967152;28;20186;-82
2022/08/28 02:39:12;;;;;;;9.43;8.37;;;;;;;;;;4955699;28;20216;-82
2022/08/28 02:42:16;;;;;;;9.93;8.17;;;;;;;;;;4947560;28;20642;-81
2022/08/28 02:45:20;;;;;;;9.67;8.53;;;;;;;;;;4975609;28;20179;-83
2022/08/28 02:48:30;;;;;;;13.00;9.40;;;;;;;;;;4963047;28;20223;-81
2022/08/28 02:51:34;;;;;;;10.07;8.07;;;;;;;;;;4963237;28;20208;-81
2022/08/28 02:54:39;;;;;;;12.47;8.90;;;;;;;;;;4973941;28;20190;-81
2022/08/28 02:57:44;;;;;;;11.60;9.53;;;;;;;;;;4974049;28;20226;-82
2022/08/28 03:00:48;;;;;;;10.67;9.20;;;;;;;;;;4963309;28;20550;-82
2022/08/28 03:03:52;;;;;;;12.50;9.37;;;;;;;;;;4963979;28;20186;-82
2022/08/28 03:06:58;;;;;;;12.67;9.53;;;;;;;;;;4974312;28;20230;-83
2022/08/28 03:10:03;;;;;;;10.67;8.90;;;;;;;;;;4977256;28;20200;-81
2022/08/28 03:13:08;;;;;;;10.97;9.00;;;;;;;;;;4959206;29;20547;-82
2022/08/28 03:16:12;;;;;;;11.33;9.03;;;;;;;;;;4976536;28;20696;-81
2022/08/28 03:19:17;;;;;;;12.93;9.63;;;;;;;;;;4969820;28;20222;-81
2022/08/28 03:23:24;;;;;;;12.17;9.40;;;;;;;;;;4959219;29;20195;-82
2022/08/28 03:25:45;;;;;;;11.33;9.70;;;;;;;;;;4967660;28;20205;-82
2022/08/28 03:28:52;;;;;;;10.13;8.57;;;;;;;;;;4966669;28;20584;-83
2022/08/28 03:31:56;;;;;;;13.47;10.50;;;;;;;;;;4966847;28;20203;-82
2022/08/28 03:35:01;;;;;;;12.57;10.30;;;;;;;;;;4967396;28;20194;-81
2022/08/28 03:38:06;;;;;;;14.40;10.40;;;;;;;;;;4966535;28;20720;-81
2022/08/28 03:41:11;;;;;;;11.43;10.00;;;;;;;;;;4978264;28;20186;-82
2022/08/28 03:44:16;;;;;;;13.67;10.50;;;;;;;;;;4955106;28;20194;-82
2022/08/28 03:47:21;;;;;;;12.23;9.40;;;;;;;;;;4966015;28;20237;-81
2022/08/28 03:50:25;;;;;;;11.50;10.07;;;;;;;;;;4988688;28;20188;-82
2022/08/28 03:53:28;;;;;;;13.73;10.60;;;;;;;;;;4954767;29;20206;-82
2022/08/28 03:56:33;;;;;;;13.93;9.70;;;;;;;;;;4981139;28;20198;-81
2022/08/28 03:59:37;;;;;;;13.63;9.77;;;;;;;;;;4976293;28;20594;-81
2022/08/28 04:02:43;;;;;;;13.57;10.40;;;;;;;;;;4966014;28;20204;-81
2022/08/28 04:05:47;;;;;;;14.97;10.77;;;;;;;;;;4988868;28;20209;-81
2022/08/28 04:08:51;;;;;;;13.77;11.27;;;;;;;;;;4962212;28;20316;-81
2022/08/28 04:11:55;;;;;;;12.00;10.83;;;;;;;;;;4936247;29;20186;-82
2022/08/28 04:14:59;;;;;;;14.50;11.23;;;;;;;;;;4957843;29;20194;-83
2022/08/28 04:18:03;;;;;;;13.27;10.50;;;;;;;;;;4957540;28;20226;-82
2022/08/28 04:21:19;;;;;;;13.47;10.27;;;;;;;;;;4962242;28;20190;-81
2022/08/28 04:24:24;;;;;;;16.57;10.97;;;;;;;;;;4976650;28;20645;-81
2022/08/28 04:27:28;;;;;;;14.43;11.13;;;;;;;;;;4979339;28;20317;-82
2022/08/28 04:30:33;;;;;;;16.37;10.63;;;;;;;;;;4935274;29;20190;-82
2022/08/28 04:33:37;;;;;;;15.70;11.10;;;;;;;;;;4957464;28;20207;-82
2022/08/28 04:36:41;;;;;;;14.37;11.23;;;;;;;;;;4956921;28;20198;-81
2022/08/28 04:39:46;;;;;;;14.13;11.93;;;;;;;;;;4946403;29;20214;-82
2022/08/28 04:42:50;;;;;;;13.50;11.27;;;;;;;;;;4965647;28;20221;-83
2022/08/28 04:45:55;;;;;;;12.97;10.97;;;;;;;;;;4976494;28;20546;-82
2022/08/28 04:48:59;;;;;;;15.70;11.57;;;;;;;;;;5032901;23;20241;-85
2022/08/28 04:52:04;;;;;;;13.10;11.73;;;;;;;;;;4996356;28;20176;-86
2022/08/28 04:55:09;;;;;;;16.00;11.93;;;;;;;;;;4997772;28;20205;-84
2022/08/28 04:58:14;;;;;;;14.90;13.30;;;;;;;;;;4950143;28;20221;-86
2022/08/28 05:01:22;;;;;;;14.37;12.60;;;;;;;;;;4977687;28;20209;-81
2022/08/28 05:04:27;;;;;;;16.57;12.10;;;;;;;;;;4980184;28;20190;-82
2022/08/28 05:07:31;;;;;;;14.77;11.97;;;;;;;;;;4978319;28;20225;-85
2022/08/28 05:10:36;;;;;;;18.67;14.03;;;;;;;;;;4975811;28;20708;-82
2022/08/28 05:13:41;;;;;;;13.83;12.03;;;;;;;;;;4964312;28;20206;-82
2022/08/28 05:16:51;;;;;;;16.70;14.27;;;;;;;;;;4971214;28;20193;-82
2022/08/28 05:19:55;;;;;;;15.13;12.33;;;;;;;;;;4976009;28;20221;-82
2022/08/28 05:23:00;;;;;;;15.47;13.17;;;;;;;;;;4975399;28;20209;-82
2022/08/28 05:26:04;;;;;;;16.17;13.63;;;;;;;;;;4963996;28;20206;-82
2022/08/28 05:29:09;;;;;;;17.93;14.30;;;;;;;;;;4956309;28;20218;-85
2022/08/28 05:32:13;;;;;;;11.97;10.73;;;;;;;;;;4958007;28;20197;-85
2022/08/28 05:35:17;;;;;;;13.87;11.47;;;;;;;;;;4963098;28;20213;-85
2022/08/28 05:38:22;;;;;;;15.60;11.10;;;;;;;;;;4983337;28;20221;-85
2022/08/28 05:41:29;;;;;;;13.97;11.77;;;;;;;;;;4980484;28;20198;-88
2022/08/28 05:44:33;;;;;;;12.47;10.67;;;;;;;;;;4973853;28;20221;-88
2022/08/28 05:47:37;;;;;;;13.87;11.43;;;;;;;;;;4973867;28;20237;-88
2022/08/28 05:50:42;;;;;;;14.03;11.53;;;;;;;;;;4969387;28;20206;-88
2022/08/28 05:53:48;;;;;;;14.73;11.60;;;;;;;;;;4963449;28;20197;-88
2022/08/28 05:56:53;;;;;;;13.03;11.10;;;;;;;;;;4975513;28;20201;-89
2022/08/28 05:59:57;;;;;;;14.00;11.40;;;;;;;;;;4964511;28;20589;-89
2022/08/28 06:03:01;;;;;;;14.80;12.20;;;;;;;;;;4963541;28;20577;-87
2022/08/28 06:06:07;;;;;;;17.23;13.07;;;;;;;;;;4964015;28;20573;-88
2022/08/28 06:09:14;;;;;;;13.47;11.90;;;;;;;;;;4964402;28;20233;-88
2022/08/28 06:12:19;;;;;;;17.77;13.13;;;;;;;;;;4975012;28;20225;-88
2022/08/28 06:15:24;;;;;;;15.77;12.33;;;;;;;;;;4986060;28;20217;-89
2022/08/28 06:18:28;;;;;;;16.97;13.10;;;;;;;;;;4975158;28;20234;-88
2022/08/28 06:21:32;;;;;;;14.83;12.33;;;;;;;;;;4974054;28;20732;-84
2022/08/28 06:24:37;;;;;;;15.67;12.97;;;;;;;;;;4983983;28;20209;-85
2022/08/28 06:27:41;;;;;;;13.80;11.23;;;;;;;;;;4975802;28;20221;-87
2022/08/28 06:30:45;;;;;;;14.77;12.40;;;;;;;;;;4963030;28;20189;-88
2022/08/28 06:33:49;;;;;;;16.33;11.90;;;;;;;;;;4976398;28;20186;-88
2022/08/28 06:36:53;;;;;;;20.00;14.07;;;;;;;;;;4962641;28;20213;-88
2022/08/28 06:39:57;;;;;;;14.67;13.17;;;;;;;;;;4970798;28;20253;-85
2022/08/28 06:43:02;;;;;;;15.87;12.27;;;;;;;;;;4933489;28;20315;-85
2022/08/28 06:46:06;;;;;;;13.97;12.37;;;;;;;;;;4959935;29;20210;-83
2022/08/28 06:49:11;;;;;;;19.97;12.23;;;;;;;;;;4973825;28;20736;-83
2022/08/28 06:52:15;;;;;;;14.47;12.87;;;;;;;;;;4979354;28;20217;-84
2022/08/28 06:55:19;;;;;;;14.50;12.70;;;;;;;;;;4979084;28;20213;-85
2022/08/28 06:58:23;;;;;;;17.57;14.00;;;;;;;;;;4971431;28;20225;-85
2022/08/28 07:01:32;;;;;;;18.40;13.50;;;;;;;;;;4986125;28;20194;-85
2022/08/28 07:04:36;;;;;;;15.37;13.10;;;;;;;;;;4986292;28;20213;-86
2022/08/28 07:07:41;;;;;;;14.07;11.90;;;;;;;;;;4997371;28;20233;-84
2022/08/28 07:10:46;;;;;;;15.43;12.27;;;;;;;;;;4984022;28;20672;-87
2022/08/28 07:13:54;;;;;;;15.43;12.13;;;;;;;;;;4981975;28;20205;-88
2022/08/28 07:16:58;;;;;;;13.10;11.77;;;;;;;;;;4962689;28;20217;-87
2022/08/28 07:20:03;;;;;;;13.93;10.90;;;;;;;;;;4953260;29;20230;-90
2022/08/28 07:23:07;;;;;;;14.67;11.40;;;;;;;;;;4995010;28;20217;-85
2022/08/28 07:26:15;;;;;;;14.80;12.13;;;;;;;;;;4957914;28;20209;-85
2022/08/28 07:29:20;;;;;;;12.90;11.10;;;;;;;;;;4982052;28;20190;-86
2022/08/28 07:32:34;;;;;;;17.40;12.83;;;;;;;;;;4992466;28;20657;-89
2022/08/28 07:35:42;;;;;;;14.73;10.90;;;;;;;;;;4962578;28;20665;-87
2022/08/28 07:38:47;;;;;;;13.50;10.47;;;;;;;;;;4979650;28;20724;-88
2022/08/28 07:41:51;;;;;;;14.57;11.50;;;;;;;;;;4990508;28;20190;-88
2022/08/28 07:44:58;;;;;;;16.87;11.37;;;;;;;;;;4978808;28;20194;-86
2022/08/28 07:48:06;;;;;;;19.40;11.30;;;;;;;;;;4977460;28;20237;-90
2022/08/28 07:51:11;;;;;;;16.00;11.70;;;;;;;;;;4970438;28;20190;-88
2022/08/28 07:54:15;;;;;;;16.47;11.53;;;;;;;;;;4969192;28;20198;-85
2022/08/28 07:57:20;;;;;;;13.87;11.40;;;;;;;;;;4975102;28;20229;-84
2022/08/28 08:00:24;;;;;;;15.10;11.87;;;;;;;;;;4989695;28;20286;-84
2022/08/28 08:03:30;;;;;;;11.73;10.47;;;;;;;;;;4957568;28;20185;-84
2022/08/28 08:06:36;;;;;;;14.63;10.43;;;;;;;;;;4978961;28;20189;-84
2022/08/28 08:09:42;;;;;;;18.23;10.40;;;;;;;;;;4989332;28;20209;-84
2022/08/28 08:12:45;;;;;;;16.93;11.90;;;;;;;;;;4968199;28;20678;-84
2022/08/28 08:15:49;;;;;;;12.67;9.97;;;;;;;;;;4948089;29;20191;-84
2022/08/28 08:18:53;;;;;;;17.57;11.23;;;;;;;;;;4970387;28;20718;-84
2022/08/28 08:21:58;;;;;;;14.00;11.53;;;;;;;;;;4949127;29;20218;-84
2022/08/28 08:25:04;;;;;;;12.97;11.27;;;;;;;;;;4959294;29;20214;-85
2022/08/28 08:28:08;;;;;;;12.00;9.97;;;;;;;;;;4978151;28;20237;-84
2022/08/28 08:31:25;;;;;;;14.27;11.40;;;;;;;;;;4978769;28;20205;-84
2022/08/28 08:34:31;;;;;;;12.80;9.63;;;;;;;;;;4986310;28;20676;-84
2022/08/28 08:37:35;;;;;;;12.93;10.43;;;;;;;;;;4967010;28;20218;-84
2022/08/28 08:40:40;;;;;;;12.20;8.90;;;;;;;;;;4989499;28;20290;-84
2022/08/28 08:44:04;;;;;;;10.50;8.83;;;;;;;;;;4980334;28;20557;-83
2022/08/28 08:47:56;;;;;;;11.30;9.40;;;;;;;;;;4973719;28;20550;-83
2022/08/28 08:51:05;;;;;;;13.30;9.93;;;;;;;;;;4985393;28;20185;-83
2022/08/28 08:54:17;;;;;;;12.43;9.47;;;;;;;;;;4982995;28;20203;-84
2022/08/28 08:57:21;;;;;;;11.83;9.00;;;;;;;;;;4970802;28;20219;-86
2022/08/28 09:00:26;;;;;;;11.13;8.77;;;;;;;;;;4966533;28;20211;-87
2022/08/28 09:03:48;;;;;;;11.00;8.50;;;;;;;;;;4965965;28;20201;-86
2022/08/28 09:07:16;;;;;;;12.00;8.60;;;;;;;;;;4964296;28;20184;-88
2022/08/28 09:10:22;;;;;;;9.43;8.37;;;;;;;;;;4983954;28;20199;-83
2022/08/28 09:13:59;;;;;;;9.93;8.80;;;;;;;;;;4983991;28;20211;-84
2022/08/28 09:17:05;;;;;;;13.73;8.57;;;;;;;;;;4974452;28;20608;-83
2022/08/28 09:20:12;;;;;;;10.47;8.30;;;;;;;;;;4997034;28;20227;-83
2022/08/28 09:23:17;;;;;;;11.70;8.90;;;;;;;;;;4987000;28;20652;-83
2022/08/28 09:26:23;;;;;;;8.80;7.90;;;;;;;;;;4983187;28;20665;-83
2022/08/28 09:29:34;;;;;;;10.67;7.70;;;;;;;;;;4981667;28;20204;-84
2022/08/28 09:32:43;;;;;;;10.87;8.53;;;;;;;;;;4971312;28;20177;-83
2022/08/28 09:35:47;;;;;;;12.83;9.43;;;;;;;;;;4983167;28;20205;-84
2022/08/28 09:39:13;;;;;;;25.17;11.70;;;;;;;;;;4981305;28;20224;-84
2022/08/28 09:46:00;;;;;;;49.67;30.37;;;;;;;;;;4974775;28;20212;-87
2022/08/28 09:49:13;;;;;;;14.53;10.47;;;;;;;;;;4974661;28;20246;-87
2022/08/28 09:52:19;;;;;;;15.50;11.20;;;;;;;;;;4946107;28;20691;-87
2022/08/28 09:55:30;;;;;;;13.23;9.77;;;;;;;;;;4974545;28;20557;-87
2022/08/28 09:58:39;;;;;;;21.83;14.40;;;;;;;;;;4974473;28;20251;-86
2022/08/28 10:01:55;;;;;;;21.07;10.03;;;;;;;;;;4973024;28;20237;-85
2022/08/28 10:05:09;;;;;;;24.20;15.97;;;;;;;;;;4977675;28;20202;-85
2022/08/28 10:08:46;;;;;;;8.63;7.03;;;;;;;;;;4956393;28;20225;-90
2022/08/28 10:11:56;;;;;;;8.70;7.23;;;;;;;;;;4960376;29;20186;-81
2022/08/28 10:15:09;;;;;;;10.40;7.47;;;;;;;;;;4958895;29;20181;-85
2022/08/28 10:18:25;;;;;;;11.43;7.17;;;;;;;;;;4979900;28;20229;-85
2022/08/28 10:21:43;;;;;;;11.50;7.10;;;;;;;;;;4961515;29;20209;-84
2022/08/28 10:25:06;;;;;;;10.82;7.43;;;;;;;;;;4960497;29;20197;-85
2022/08/28 10:28:30;;;;;;;10.15;6.78;;;;;;;;;;4960420;28;20709;-85
2022/08/28 10:31:53;;;;;;;8.75;6.97;;;;;;;;;;4973092;28;20179;-84
2022/08/28 10:35:14;;;;;;;8.83;7.07;;;;;;;;;;4971284;28;20185;-85
2022/08/28 10:38:31;;;;;;;8.35;6.78;;;;;;;;;;4961355;28;20698;-84
2022/08/28 10:41:48;;;;;;;8.83;6.67;;;;;;;;;;4973282;28;20211;-85
2022/08/28 10:45:07;;;;;;;8.20;5.70;;;;;;;;;;4953385;29;20180;-83
2022/08/28 10:48:28;;;;;;;8.07;6.27;;;;;;;;;;5027426;23;20235;-77
2022/08/28 10:51:36;;;;;;;7.77;6.23;;;;;;;;;;5005266;28;20544;-77
2022/08/28 10:55:13;;;;;;;9.27;6.07;;;;;;;;;;5016799;28;20185;-77
2022/08/28 10:58:17;;;;;;;6.20;5.23;;;;;;;;;;5016252;28;20655;-77
2022/08/28 11:01:34;;;;;;;9.43;5.87;;;;;;;;;;5016961;28;20219;-77
2022/08/28 11:04:38;;;;;;;7.13;5.50;;;;;;;;;;5016736;28;20187;-77
2022/08/28 11:07:48;;;;;;;7.77;5.80;;;;;;;;;;5016410;28;20186;-77
2022/08/28 11:10:54;;;;;;;6.07;5.37;;;;;;;;;;5016263;28;20216;-77
2022/08/28 11:14:00;;;;;;;7.72;5.53;;;;;;;;;;5015983;28;20201;-77
2022/08/28 11:17:08;;;;;;;7.05;5.60;;;;;;;;;;5016507;28;20535;-78
2022/08/28 11:20:23;;;;;;;5.85;4.75;;;;;;;;;;5016395;28;20178;-78
2022/08/28 11:23:37;;;;;;;6.97;5.03;;;;;;;;;;5027181;28;20199;-78
2022/08/28 11:27:12;;;;;;;8.37;5.40;;;;;;;;;;5027918;28;20188;-77
2022/08/28 11:30:32;;;;;;;6.15;5.47;;;;;;;;;;5015585;28;20187;-77
2022/08/28 11:33:38;;;;;;;6.40;5.70;;;;;;;;;;5016220;28;20188;-77
2022/08/28 11:36:42;;;;;;;6.65;5.53;;;;;;;;;;5016490;28;20185;-77
2022/08/28 11:39:46;;;;;;;6.97;5.03;;;;;;;;;;5016260;28;20185;-78
2022/08/28 11:42:50;;;;;;;7.10;4.90;;;;;;;;;;5016116;28;20213;-77
2022/08/28 11:45:54;;;;;;;6.33;4.90;;;;;;;;;;5016725;28;20185;-77
2022/08/28 11:49:01;;;;;;;8.05;4.80;;;;;;;;;;5016849;28;20207;-77
2022/08/28 11:52:21;;;;;;;6.03;4.30;;;;;;;;;;5004290;28;20210;-77
2022/08/28 11:55:43;;;;;;;5.82;5.18;;;;;;;;;;5015586;28;20182;-78
2022/08/28 11:59:10;;;;;;;6.55;4.90;;;;;;;;;;5027840;28;20185;-77
2022/08/28 12:02:35;;;;;;;9.32;4.85;;;;;;;;;;5026458;28;20226;-77
2022/08/28 12:05:48;;;;;;;6.60;4.40;;;;;;;;;;5015757;28;20351;-77
2022/08/28 12:08:53;;;;;;;5.97;4.77;;;;;;;;;;5015031;28;20192;-77
2022/08/28 12:12:01;;;;;;;5.53;4.43;;;;;;;;;;5015857;28;20213;-77
2022/08/28 12:15:07;;;;;;;7.63;5.17;;;;;;;;;;5015194;28;20182;-77
2022/08/28 12:18:35;;;;;;;6.40;4.50;;;;;;;;;;5015406;28;20199;-77
2022/08/28 12:21:41;;;;;;;9.23;4.80;;;;;;;;;;5015803;28;20225;-78
2022/08/28 12:24:49;;;;;;;4.88;4.40;;;;;;;;;;5026530;28;20188;-77
2022/08/28 12:27:55;;;;;;;5.22;4.25;;;;;;;;;;5015059;28;20653;-77
2022/08/28 12:31:20;;;;;;;4.57;4.10;;;;;;;;;;5015004;28;20221;-77
2022/08/28 12:34:53;;;;;;;5.75;4.30;;;;;;;;;;5015072;28;20180;-78
2022/08/28 12:38:02;;;;;;;6.22;4.45;;;;;;;;;;5021532;28;20508;-78
2022/08/28 12:41:15;;;;;;;5.47;4.18;;;;;;;;;;5026126;28;20221;-78
2022/08/28 12:44:31;;;;;;;5.85;4.40;;;;;;;;;;5015312;28;20192;-78
2022/08/28 12:47:36;;;;;;;5.30;3.95;;;;;;;;;;5015590;28;20183;-78
2022/08/28 12:50:40;;;;;;;6.57;4.60;;;;;;;;;;5015745;28;20228;-78
2022/08/28 12:53:47;;;;;;;5.13;4.10;;;;;;;;;;5015342;28;20181;-77
2022/08/28 12:56:51;;;;;;;5.90;4.47;;;;;;;;;;5015100;28;20182;-78
2022/08/28 13:00:08;;;;;;;6.38;4.10;;;;;;;;;;5026318;28;20542;-78
2022/08/28 13:03:12;;;;;;;6.45;4.07;;;;;;;;;;5016532;28;20207;-78
2022/08/28 13:06:26;;;;;;;6.22;4.05;;;;;;;;;;5026373;28;20540;-78
2022/08/28 13:09:30;;;;;;;4.75;3.55;;;;;;;;;;5016228;28;20197;-78
2022/08/28 13:12:39;;;;;;;7.13;4.10;;;;;;;;;;5015790;28;20216;-78
2022/08/28 13:15:54;;;;;;;4.53;3.38;;;;;;;;;;5025301;28;20539;-77
2022/08/28 13:19:04;;;;;;;6.43;3.70;;;;;;;;;;5014753;28;20178;-78
2022/08/28 13:22:38;;;;;;;6.60;3.92;;;;;;;;;;5015886;28;20214;-77
2022/08/28 13:25:42;;;;;;;9.65;4.25;;;;;;;;;;5015147;28;20187;-78
2022/08/28 13:28:46;;;;;;;5.75;4.22;;;;;;;;;;5014545;28;20198;-77
2022/08/28 13:31:58;;;;;;;6.18;4.22;;;;;;;;;;5024877;28;20219;-77
2022/08/28 13:35:12;;;;;;;6.73;4.20;;;;;;;;;;5014061;28;20190;-77
2022/08/28 13:38:19;;;;;;;6.17;4.10;;;;;;;;;;5013813;28;20186;-77
2022/08/28 13:41:23;;;;;;;8.63;4.50;;;;;;;;;;5013064;28;20224;-77
2022/08/28 13:44:33;;;;;;;6.13;3.63;;;;;;;;;;5014928;28;20194;-77
2022/08/28 13:47:37;;;;;;;5.40;4.00;;;;;;;;;;5013680;28;20650;-78
2022/08/28 13:50:44;;;;;;;4.82;3.78;;;;;;;;;;5025542;28;20222;-78
2022/08/28 13:53:49;;;;;;;7.70;3.88;;;;;;;;;;5024726;28;20176;-77
2022/08/28 13:56:53;;;;;;;7.50;4.45;;;;;;;;;;5014815;28;20519;-77
2022/08/28 13:59:58;;;;;;;5.22;4.10;;;;;;;;;;5025071;28;20627;-78
2022/08/28 14:06:24;;;;;;;4.55;3.40;;;;;;;;;;5015785;28;20189;-78
2022/08/28 14:09:28;;;;;;;6.22;3.67;;;;;;;;;;5025751;28;20177;-78
2022/08/28 14:12:32;;;;;;;8.93;3.67;;;;;;;;;;5014527;28;20216;-78
2022/08/28 14:15:36;;;;;;;5.00;3.50;;;;;;;;;;5014731;28;20659;-78
2022/08/28 14:18:40;;;;;;;7.57;3.83;;;;;;;;;;5014451;28;20639;-78
2022/08/28 14:21:44;;;;;;;4.70;3.75;;;;;;;;;;5025316;28;20224;-78
2022/08/28 14:24:48;;;;;;;5.22;3.85;;;;;;;;;;5014117;28;20184;-78
2022/08/28 14:27:54;;;;;;;6.65;3.53;;;;;;;;;;5015147;28;20179;-78
2022/08/28 14:30:58;;;;;;;5.07;3.67;;;;;;;;;;5014217;28;20688;-77
2022/08/28 14:34:04;;;;;;;4.68;3.85;;;;;;;;;;5026100;28;20179;-78
2022/08/28 14:37:08;;;;;;;4.28;3.80;;;;;;;;;;5014540;28;20173;-78
2022/08/28 14:40:12;;;;;;;7.05;3.65;;;;;;;;;;5014976;28;20183;-78
2022/08/28 14:43:16;;;;;;;5.20;3.80;;;;;;;;;;5025474;28;20203;-78
2022/08/28 14:46:29;;;;;;;4.97;3.72;;;;;;;;;;5014232;28;20189;-78
2022/08/28 14:49:33;;;;;;;5.32;4.03;;;;;;;;;;5014861;28;20200;-78
2022/08/28 14:52:37;;;;;;;5.10;3.78;;;;;;;;;;5014860;28;20214;-78
2022/08/28 14:55:44;;;;;;;5.45;4.05;;;;;;;;;;5015351;28;20186;-78
2022/08/28 14:58:48;;;;;;;5.45;4.13;;;;;;;;;;5015033;28;20175;-78
2022/08/28 15:01:56;;;;;;;6.38;4.20;;;;;;;;;;5026098;28;20690;-78
2022/08/28 15:05:00;;;;;;;5.80;4.25;;;;;;;;;;5027235;28;20192;-78
2022/08/28 15:08:11;;;;;;;4.95;4.10;;;;;;;;;;5017836;28;20180;-78
2022/08/28 15:11:18;;;;;;;4.35;3.78;;;;;;;;;;5017394;28;20224;-78
2022/08/28 15:14:22;;;;;;;7.22;4.28;;;;;;;;;;5028392;28;20629;-78
2022/08/28 15:17:26;;;;;;;4.63;4.03;;;;;;;;;;5016652;28;20186;-78
2022/08/28 15:20:39;;;;;;;4.53;3.92;;;;;;;;;;5019017;28;20182;-78
2022/08/28 15:23:44;;;;;;;5.55;4.22;;;;;;;;;;5006913;28;20200;-78
2022/08/28 15:26:48;;;;;;;8.48;3.75;;;;;;;;;;5018782;28;20634;-77
2022/08/28 15:29:52;;;;;;;6.35;4.18;;;;;;;;;;5028482;28;20185;-78
2022/08/28 15:32:56;;;;;;;5.70;3.70;;;;;;;;;;5018709;28;20176;-78
2022/08/28 15:36:01;;;;;;;8.70;4.20;;;;;;;;;;5017878;28;20206;-78
2022/08/28 15:42:28;;;;;;;8.05;3.67;;;;;;;;;;5029052;28;20224;-78
2022/08/28 15:45:36;;;;;;;6.13;3.80;;;;;;;;;;5017614;28;20190;-78
2022/08/28 15:48:40;;;;;;;6.17;4.13;;;;;;;;;;5018591;28;20369;-78
2022/08/28 15:51:45;;;;;;;9.43;4.53;;;;;;;;;;5017395;28;20562;-78
2022/08/28 15:54:49;;;;;;;9.63;4.40;;;;;;;;;;5005138;28;20184;-79
2022/08/28 15:57:53;;;;;;;8.55;4.18;;;;;;;;;;5018090;28;20187;-78
2022/08/28 16:00:58;;;;;;;5.23;4.03;;;;;;;;;;5015613;28;20221;-78
2022/08/28 16:04:04;;;;;;;6.27;4.20;;;;;;;;;;5027035;28;20206;-77
2022/08/28 16:07:08;;;;;;;5.27;3.97;;;;;;;;;;5016837;28;20192;-78
2022/08/28 16:10:12;;;;;;;5.40;3.87;;;;;;;;;;5027535;28;20204;-78
2022/08/28 16:13:17;;;;;;;5.67;3.70;;;;;;;;;;5026557;28;20542;-78
2022/08/28 16:16:22;;;;;;;4.27;3.77;;;;;;;;;;5015665;28;20185;-78
2022/08/28 16:19:27;;;;;;;5.17;3.67;;;;;;;;;;5015934;28;20662;-77
2022/08/28 16:22:31;;;;;;;4.67;4.07;;;;;;;;;;5026358;28;20221;-78
2022/08/28 16:25:37;;;;;;;6.40;4.07;;;;;;;;;;5016871;28;20663;-78
2022/08/28 16:28:43;;;;;;;6.93;4.27;;;;;;;;;;5015827;28;20183;-78
2022/08/28 16:31:47;;;;;;;5.40;3.90;;;;;;;;;;5015266;28;20218;-78
2022/08/28 16:34:51;;;;;;;4.83;3.80;;;;;;;;;;5026315;28;20186;-78
2022/08/28 16:37:55;;;;;;;6.63;4.10;;;;;;;;;;5015014;28;20517;-77
2022/08/28 16:41:00;;;;;;;4.57;3.87;;;;;;;;;;5014788;28;20214;-78
2022/08/28 16:44:04;;;;;;;7.47;3.80;;;;;;;;;;5015111;28;20206;-78
2022/08/28 16:47:08;;;;;;;6.27;4.07;;;;;;;;;;5015295;28;20187;-78
2022/08/28 16:50:13;;;;;;;6.67;4.37;;;;;;;;;;5030779;23;20230;-80
2022/08/28 16:53:16;;;;;;;7.37;4.20;;;;;;;;;;4998326;28;20172;-80
2022/08/28 16:56:22;;;;;;;4.83;3.90;;;;;;;;;;4987790;28;20180;-80
2022/08/28 16:59:27;;;;;;;4.53;3.87;;;;;;;;;;5003078;28;20184;-80
2022/08/28 17:02:32;;;;;;;6.40;4.23;;;;;;;;;;5002565;28;20229;-81
2022/08/28 17:05:38;;;;;;;5.23;4.33;;;;;;;;;;5002529;28;20187;-80
2022/08/28 17:08:45;;;;;;;4.67;4.10;;;;;;;;;;5002549;28;20528;-80
2022/08/28 17:11:49;;;;;;;6.97;4.50;;;;;;;;;;4980118;28;20222;-80
2022/08/28 17:14:55;;;;;;;4.43;3.70;;;;;;;;;;4990605;28;20176;-79
2022/08/28 17:17:59;;;;;;;7.93;4.17;;;;;;;;;;5000543;28;20203;-81
2022/08/28 17:24:27;;;;;;;9.20;4.07;;;;;;;;;;4988741;28;20214;-79
2022/08/28 17:27:31;;;;;;;4.40;3.90;;;;;;;;;;4988723;28;20187;-79
2022/08/28 17:30:35;;;;;;;5.83;4.23;;;;;;;;;;4999607;28;20222;-79
2022/08/28 17:33:42;;;;;;;7.90;4.57;;;;;;;;;;4988426;28;20183;-79
2022/08/28 17:36:46;;;;;;;11.23;4.60;;;;;;;;;;4987654;28;20183;-80
2022/08/28 17:39:52;;;;;;;8.73;4.37;;;;;;;;;;4986834;28;20204;-80
2022/08/28 17:42:56;;;;;;;6.67;4.53;;;;;;;;;;4975716;28;20545;-79
2022/08/28 17:46:01;;;;;;;6.63;4.23;;;;;;;;;;4986732;28;20181;-78
2022/08/28 17:49:07;;;;;;;5.90;4.20;;;;;;;;;;4986157;28;20208;-79
2022/08/28 17:52:12;;;;;;;8.30;4.33;;;;;;;;;;4976010;28;20679;-79
2022/08/28 17:55:17;;;;;;;6.27;4.00;;;;;;;;;;4985955;28;20177;-79
2022/08/28 17:58:21;;;;;;;5.60;4.20;;;;;;;;;;4974456;28;20184;-78
2022/08/28 18:01:25;;;;;;;9.13;4.20;;;;;;;;;;4996766;28;20212;-79
2022/08/28 18:04:29;;;;;;;5.40;4.60;;;;;;;;;;4985242;28;20558;-80
2022/08/28 18:07:33;;;;;;;7.00;4.43;;;;;;;;;;4985606;28;20630;-79
2022/08/28 18:10:38;;;;;;;6.23;3.90;;;;;;;;;;4985005;28;20211;-79
2022/08/28 18:13:41;;;;;;;6.93;4.47;;;;;;;;;;4973046;28;20187;-79
2022/08/28 18:16:46;;;;;;;7.67;4.40;;;;;;;;;;4953620;28;20184;-79
2022/08/28 18:19:50;;;;;;;7.43;4.80;;;;;;;;;;5002918;28;20664;-80
2022/08/28 18:22:54;;;;;;;5.17;4.17;;;;;;;;;;4970255;28;20225;-77
2022/08/28 18:25:58;;;;;;;6.53;5.00;;;;;;;;;;4984769;28;20206;-80
2022/08/28 18:29:02;;;;;;;5.70;5.10;;;;;;;;;;4984537;28;20185;-80
2022/08/28 18:32:07;;;;;;;6.03;5.13;;;;;;;;;;4987936;28;20218;-79
2022/08/28 18:35:11;;;;;;;5.20;4.70;;;;;;;;;;4976530;28;20199;-79
2022/08/28 18:38:16;;;;;;;8.40;5.43;;;;;;;;;;4982157;28;20202;-80
2022/08/28 18:41:21;;;;;;;6.97;5.83;;;;;;;;;;4975980;28;20221;-79
2022/08/28 18:44:25;;;;;;;7.93;5.77;;;;;;;;;;4979835;28;20210;-77